createdAt,value
2019-03-06T00:00:48.406Z,97078.86
2019-03-06T00:03:56.491Z,97084.98
2019-03-06T00:07:03.284Z,97081.16
2019-03-06T00:10:23.958Z,97073.56
2019-03-06T00:13:30.654Z,97077.70
2019-03-06T00:16:57.737Z,97074.63
2019-03-06T00:20:04.292Z,97075.15
2019-03-06T00:23:11.032Z,97067.48
2019-03-06T00:26:17.497Z,97066.95
2019-03-06T00:29:24.502Z,97058.20
2019-03-06T00:32:30.893Z,97067.10
2019-03-06T00:35:44.149Z,97062.82
2019-03-06T00:38:50.622Z,97063.90
2019-03-06T00:42:00.075Z,97062.27
2019-03-06T00:45:07.502Z,97063.88
2019-03-06T00:48:14.179Z,97053.44
2019-03-06T00:51:21.413Z,97057.42
2019-03-06T00:54:27.895Z,97047.98
2019-03-06T00:57:34.191Z,97039.13
2019-03-06T01:00:41.041Z,97039.83
2019-03-06T01:03:47.666Z,97030.09
2019-03-06T01:06:53.858Z,97036.23
2019-03-06T01:10:00.413Z,97032.10
2019-03-06T01:13:07.432Z,97034.23
2019-03-06T01:16:14.521Z,97034.41
2019-03-06T01:19:21.536Z,97034.33
2019-03-06T01:22:28.402Z,97033.92
2019-03-06T01:25:35.001Z,97036.58
2019-03-06T01:28:41.271Z,97040.12
2019-03-06T01:31:47.917Z,97031.55
2019-03-06T01:35:16.249Z,97040.73
2019-03-06T01:38:40.545Z,97035.52
2019-03-06T01:41:54.943Z,97035.41
2019-03-06T01:45:04.309Z,97043.16
2019-03-06T01:48:11.359Z,97040.41
2019-03-06T01:51:17.902Z,97039.44
2019-03-06T01:54:24.817Z,97037.77
2019-03-06T01:57:31.453Z,97027.87
2019-03-06T02:00:38.828Z,97022.55
2019-03-06T02:03:45.455Z,97020.37
2019-03-06T02:06:52.010Z,97011.87
2019-03-06T02:09:58.581Z,97022.42
2019-03-06T02:13:05.565Z,97018.58
2019-03-06T02:16:12.304Z,97019.62
2019-03-06T02:19:19.056Z,97024.09
2019-03-06T02:22:25.956Z,97016.17
2019-03-06T02:25:32.595Z,97024.34
2019-03-06T02:28:39.560Z,97017.27
2019-03-06T02:31:47.019Z,97019.90
2019-03-06T02:34:53.623Z,97018.31
2019-03-06T02:38:01.260Z,97004.31
2019-03-06T02:41:08.074Z,97007.70
2019-03-06T02:44:14.975Z,97011.34
2019-03-06T02:47:21.565Z,97009.12
2019-03-06T02:50:27.793Z,97006.80
2019-03-06T02:53:34.263Z,96998.03
2019-03-06T02:56:40.864Z,96989.44
2019-03-06T03:00:01.523Z,96986.42
2019-03-06T03:03:15.534Z,96979.85
2019-03-06T03:06:28.539Z,96964.73
2019-03-06T03:09:35.353Z,96964.60
2019-03-06T03:12:42.721Z,96963.51
2019-03-06T03:15:51.229Z,96957.52
2019-03-06T03:18:57.991Z,96959.48
2019-03-06T03:22:04.449Z,96949.92
2019-03-06T03:25:11.094Z,96948.23
2019-03-06T03:28:19.801Z,96947.84
2019-03-06T03:31:26.693Z,96943.36
2019-03-06T03:34:33.238Z,96943.11
2019-03-06T03:37:39.946Z,96941.94
2019-03-06T03:40:46.527Z,96928.06
2019-03-06T03:43:52.734Z,96936.80
2019-03-06T03:46:59.424Z,96939.31
2019-03-06T03:50:06.044Z,96946.08
2019-03-06T03:53:12.565Z,96942.61
2019-03-06T03:56:18.964Z,96944.23
2019-03-06T03:59:25.445Z,96937.87
2019-03-06T04:02:32.248Z,96939.55
2019-03-06T04:05:38.647Z,96932.36
2019-03-06T04:08:45.555Z,96932.06
2019-03-06T04:11:52.571Z,96923.80
2019-03-06T04:14:59.504Z,96925.48
2019-03-06T04:18:06.105Z,96919.75
2019-03-06T04:21:12.575Z,96915.44
2019-03-06T04:24:19.461Z,96920.69
2019-03-06T04:27:25.697Z,96925.36
2019-03-06T04:30:31.942Z,96922.05
2019-03-06T04:33:38.669Z,96928.58
2019-03-06T04:36:45.209Z,96925.03
2019-03-06T04:39:52.498Z,96926.14
2019-03-06T04:42:59.006Z,96921.27
2019-03-06T04:46:05.707Z,96913.09
2019-03-06T04:49:12.121Z,96909.93
2019-03-06T04:52:18.774Z,96909.20
2019-03-06T04:55:25.128Z,96903.83
2019-03-06T04:58:31.840Z,96905.80
2019-03-06T05:01:39.003Z,96904.59
2019-03-06T05:04:45.941Z,96909.56
2019-03-06T05:07:52.399Z,96906.64
2019-03-06T05:10:59.024Z,96901.39
2019-03-06T05:14:05.602Z,96902.59
2019-03-06T05:17:24.827Z,96903.48
2019-03-06T05:20:31.757Z,96897.13
2019-03-06T05:23:39.648Z,96895.59
2019-03-06T05:26:46.084Z,96892.29
2019-03-06T05:29:53.019Z,96894.97
2019-03-06T05:33:00.996Z,96885.23
2019-03-06T05:36:48.252Z,96887.83
2019-03-06T05:39:54.823Z,96888.25
2019-03-06T05:43:02.210Z,96881.56
2019-03-06T05:46:09.560Z,96884.30
2019-03-06T05:49:16.918Z,96881.41
2019-03-06T05:52:24.123Z,96880.84
2019-03-06T05:55:30.659Z,96882.64
2019-03-06T05:58:37.438Z,96880.36
2019-03-06T06:01:45.520Z,96876.99
2019-03-06T06:04:52.199Z,96865.12
2019-03-06T06:07:58.788Z,96869.88
2019-03-06T06:11:05.337Z,96868.05
2019-03-06T06:14:11.736Z,96869.58
2019-03-06T06:17:18.279Z,96862.45
2019-03-06T06:20:24.890Z,96867.45
2019-03-06T06:23:44.595Z,96864.50
2019-03-06T06:26:51.053Z,96864.36
2019-03-06T06:29:57.839Z,96866.59
2019-03-06T06:33:04.460Z,96871.80
2019-03-06T06:36:11.089Z,96867.27
2019-03-06T06:39:17.263Z,96857.73
2019-03-06T06:42:24.090Z,96852.31
2019-03-06T06:45:31.606Z,96855.38
2019-03-06T06:48:38.731Z,96835.67
2019-03-06T06:52:19.131Z,96834.68
2019-03-06T06:56:24.822Z,96830.74
2019-03-06T07:00:02.215Z,96821.83
2019-03-06T07:03:43.316Z,96820.93
2019-03-06T07:07:11.085Z,96814.66
2019-03-06T07:10:37.042Z,96794.77
2019-03-06T07:14:03.254Z,96794.09
2019-03-06T07:17:15.772Z,96781.72
2019-03-06T07:20:40.868Z,96779.81
2019-03-06T07:23:56.660Z,96766.31
2019-03-06T07:27:18.608Z,96757.67
2019-03-06T07:30:39.561Z,96759.91
2019-03-06T07:34:08.311Z,96760.55
2019-03-06T07:37:36.708Z,96759.72
2019-03-06T07:41:14.488Z,96761.50
2019-03-06T07:44:38.708Z,96757.00
2019-03-06T07:48:22.830Z,96751.52
2019-03-06T07:51:47.964Z,96742.26
2019-03-06T07:55:12.160Z,96743.66
2019-03-06T07:58:56.117Z,96747.89
2019-03-06T08:02:06.787Z,96749.65
2019-03-06T08:05:14.345Z,96748.47
2019-03-06T08:08:20.675Z,96747.64
2019-03-06T08:11:46.498Z,96750.27
2019-03-06T08:15:05.374Z,96754.63
2019-03-06T08:18:25.644Z,96746.64
2019-03-06T08:21:48.760Z,96745.78
2019-03-06T08:25:21.573Z,96744.73
2019-03-06T08:28:28.594Z,96738.80
2019-03-06T08:31:41.668Z,96735.92
2019-03-06T08:34:48.957Z,96730.67
2019-03-06T08:37:55.741Z,96731.27
2019-03-06T08:41:04.888Z,96737.55
2019-03-06T08:44:12.043Z,96731.94
2019-03-06T08:47:36.243Z,96722.84
2019-03-06T08:50:52.676Z,96722.30
2019-03-06T08:54:06.908Z,96722.98
2019-03-06T08:57:39.363Z,96729.46
2019-03-06T09:01:03.793Z,96720.72
2019-03-06T09:04:27.950Z,96722.76
2019-03-06T09:07:55.954Z,96719.80
2019-03-06T09:11:20.906Z,96708.19
2019-03-06T09:14:35.546Z,96705.67
2019-03-06T09:18:19.607Z,96705.53
2019-03-06T09:21:45.457Z,96717.59
2019-03-06T09:25:06.898Z,96718.77
2019-03-06T09:28:32.276Z,96727.39
2019-03-06T09:32:10.809Z,96735.43
2019-03-06T09:35:36.166Z,96722.41
2019-03-06T09:38:49.046Z,96735.09
2019-03-06T09:42:11.747Z,96741.42
2019-03-06T09:45:36.475Z,96741.77
2019-03-06T09:49:11.557Z,96740.58
2019-03-06T09:52:38.456Z,96733.17
2019-03-06T09:56:05.211Z,96727.67
2019-03-06T09:59:22.096Z,96727.31
2019-03-06T10:02:56.985Z,96730.45
2019-03-06T10:06:38.740Z,96731.50
2019-03-06T10:10:02.700Z,96724.44
2019-03-06T10:13:32.421Z,96722.16
2019-03-06T10:17:16.278Z,96718.45
2019-03-06T10:20:25.412Z,96709.13
2019-03-06T10:23:32.733Z,96708.66
2019-03-06T10:26:39.516Z,96703.94
2019-03-06T10:29:46.527Z,96694.97
2019-03-06T10:32:53.402Z,96689.30
2019-03-06T10:36:00.542Z,96677.03
2019-03-06T10:39:08.975Z,96664.92
2019-03-06T10:42:15.779Z,96653.52
2019-03-06T10:45:23.165Z,96645.09
2019-03-06T10:48:30.709Z,96633.43
2019-03-06T10:51:38.807Z,96632.25
2019-03-06T10:54:45.501Z,96628.82
2019-03-06T10:57:52.661Z,96624.77
2019-03-06T11:00:59.230Z,96610.34
2019-03-06T11:04:23.717Z,96613.80
2019-03-06T11:07:30.383Z,96604.92
2019-03-06T11:10:37.268Z,96601.29
2019-03-06T11:13:44.395Z,96601.02
2019-03-06T11:16:52.012Z,96598.34
2019-03-06T11:19:59.148Z,96595.34
2019-03-06T11:23:07.571Z,96580.78
2019-03-06T11:26:14.243Z,96577.48
2019-03-06T11:29:20.857Z,96582.81
2019-03-06T11:32:27.562Z,96569.87
2019-03-06T11:35:34.353Z,96566.08
2019-03-06T11:38:41.219Z,96556.09
2019-03-06T11:41:48.097Z,96555.23
2019-03-06T11:44:54.691Z,96550.18
2019-03-06T11:48:02.500Z,96536.84
2019-03-06T11:51:10.016Z,96534.82
2019-03-06T11:54:17.230Z,96533.54
2019-03-06T11:57:24.235Z,96533.73
2019-03-06T12:00:37.488Z,96522.12
2019-03-06T12:03:44.281Z,96511.61
2019-03-06T12:06:51.035Z,96517.33
2019-03-06T12:09:57.760Z,96508.73
2019-03-06T12:13:09.613Z,96499.35
2019-03-06T12:16:19.316Z,96496.25
2019-03-06T12:19:26.202Z,96485.13
2019-03-06T12:22:33.158Z,96476.88
2019-03-06T12:25:41.107Z,96469.32
2019-03-06T12:28:48.230Z,96453.75
2019-03-06T12:31:54.833Z,96454.79
2019-03-06T12:35:03.720Z,96435.55
2019-03-06T12:38:11.313Z,96424.28
2019-03-06T12:41:18.823Z,96419.84
2019-03-06T12:44:26.242Z,96406.45
2019-03-06T12:47:33.353Z,96391.28
2019-03-06T12:50:40.293Z,96386.09
2019-03-06T12:53:47.103Z,96383.55
2019-03-06T12:56:53.598Z,96382.30
2019-03-06T13:00:00.744Z,96385.31
2019-03-06T13:03:07.445Z,96374.83
2019-03-06T13:06:23.911Z,96390.80
2019-03-06T13:09:22.223Z,96377.38
2019-03-06T13:12:32.346Z,96368.70
2019-03-06T13:15:39.472Z,96354.98
2019-03-06T13:18:46.448Z,96347.31
2019-03-06T13:21:53.069Z,96341.58
2019-03-06T13:24:59.701Z,96332.17
2019-03-06T13:28:06.313Z,96321.27
2019-03-06T13:31:13.337Z,96312.72
2019-03-06T13:34:32.973Z,96311.97
2019-03-06T13:37:41.068Z,96298.09
2019-03-06T13:40:48.401Z,96298.09
2019-03-06T13:43:54.927Z,96289.83
2019-03-06T13:47:02.126Z,96275.98
2019-03-06T13:50:08.778Z,96281.45
2019-03-06T13:53:20.278Z,96276.66
2019-03-06T13:56:23.871Z,96270.39
2019-03-06T13:59:30.831Z,96256.62
2019-03-06T14:02:37.326Z,96247.95
2019-03-06T14:05:44.439Z,96241.22
2019-03-06T14:08:51.463Z,96245.45
2019-03-06T14:11:59.664Z,96240.36
2019-03-06T14:15:07.242Z,96238.73
2019-03-06T14:18:14.708Z,96226.86
2019-03-06T14:21:23.231Z,96224.66
2019-03-06T14:24:30.208Z,96218.19
2019-03-06T14:27:36.578Z,96216.89
2019-03-06T14:30:44.655Z,96209.86
2019-03-06T14:33:52.348Z,96203.38
2019-03-06T14:36:59.065Z,96201.84
2019-03-06T14:40:09.954Z,96194.92
2019-03-06T14:43:16.334Z,96198.70
2019-03-06T14:46:23.096Z,96197.35
2019-03-06T14:49:30.483Z,96185.38
2019-03-06T14:52:36.878Z,96185.20
2019-03-06T14:55:43.831Z,96185.30
2019-03-06T14:58:50.537Z,96184.73
2019-03-06T15:01:57.659Z,96174.96
2019-03-06T15:05:04.746Z,96177.61
2019-03-06T15:08:11.670Z,96179.42
2019-03-06T15:11:18.599Z,96172.33
2019-03-06T15:14:25.350Z,96160.00
2019-03-06T15:17:31.697Z,96157.51
2019-03-06T15:20:38.681Z,96157.16
2019-03-06T15:23:45.185Z,96157.67
2019-03-06T15:26:51.728Z,96152.98
2019-03-06T15:29:58.579Z,96143.03
2019-03-06T15:33:05.627Z,96115.03
2019-03-06T15:36:12.766Z,96109.55
2019-03-06T15:39:31.943Z,96126.63
2019-03-06T15:42:39.068Z,96120.84
2019-03-06T15:45:46.971Z,96114.95
2019-03-06T15:48:54.050Z,96106.89
2019-03-06T15:52:00.660Z,96103.03
2019-03-06T15:55:09.645Z,96100.59
2019-03-06T15:58:17.119Z,96100.27
2019-03-06T16:01:25.301Z,96100.74
2019-03-06T16:04:35.852Z,96095.50
2019-03-06T16:07:42.960Z,96093.99
2019-03-06T16:10:51.530Z,96094.62
2019-03-06T16:14:00.720Z,96089.06
2019-03-06T16:17:12.855Z,96088.36
2019-03-06T16:20:20.022Z,96087.16
2019-03-06T16:23:27.702Z,96078.59
2019-03-06T16:26:36.990Z,96071.88
2019-03-06T16:29:44.203Z,96059.29
2019-03-06T16:32:51.624Z,96062.49
2019-03-06T16:35:58.902Z,96066.42
2019-03-06T16:39:07.890Z,96053.55
2019-03-06T16:42:15.764Z,96042.66
2019-03-06T16:45:24.905Z,96048.45
2019-03-06T16:48:31.980Z,96049.55
2019-03-06T16:51:41.564Z,96038.56
2019-03-06T16:54:50.441Z,96039.31
2019-03-06T16:57:58.619Z,96030.52
2019-03-06T17:01:06.544Z,96025.02
2019-03-06T17:04:13.046Z,96020.03
2019-03-06T17:07:20.419Z,96021.20
2019-03-06T17:10:29.021Z,96033.88
2019-03-06T17:13:35.524Z,96031.52
2019-03-06T17:16:42.688Z,96023.28
2019-03-06T17:19:50.874Z,96019.79
2019-03-06T17:22:57.654Z,96016.84
2019-03-06T17:26:04.377Z,96014.31
2019-03-06T17:29:13.613Z,96016.23
2019-03-06T17:32:20.557Z,96023.06
2019-03-06T17:35:28.961Z,96015.21
2019-03-06T17:38:37.052Z,96010.08
2019-03-06T17:41:44.969Z,96007.63
2019-03-06T17:44:51.691Z,96010.05
2019-03-06T17:47:58.906Z,96001.69
2019-03-06T17:51:10.288Z,96006.20
2019-03-06T17:54:17.403Z,95999.59
2019-03-06T17:57:24.178Z,96000.31
2019-03-06T18:00:39.082Z,95994.29
2019-03-06T18:04:12.386Z,96000.34
2019-03-06T18:07:19.230Z,95996.12
2019-03-06T18:10:26.874Z,95992.91
2019-03-06T18:13:35.297Z,95993.84
2019-03-06T18:16:42.685Z,95992.55
2019-03-06T18:19:49.577Z,95993.75
2019-03-06T18:22:56.463Z,95997.36
2019-03-06T18:26:05.918Z,95990.07
2019-03-06T18:29:12.924Z,95984.69
2019-03-06T18:32:19.615Z,95987.62
2019-03-06T18:35:26.314Z,95985.69
2019-03-06T18:38:36.250Z,95990.61
2019-03-06T18:41:44.011Z,96003.45
2019-03-06T18:44:51.084Z,96010.80
2019-03-06T18:47:58.309Z,96009.12
2019-03-06T18:51:05.046Z,96020.31
2019-03-06T18:54:12.102Z,96016.45
2019-03-06T18:57:18.700Z,96013.68
2019-03-06T19:00:25.711Z,95996.52
2019-03-06T19:03:32.937Z,95997.61
2019-03-06T19:06:41.420Z,95995.30
2019-03-06T19:09:48.445Z,96006.99
2019-03-06T19:12:55.589Z,95999.98
2019-03-06T19:16:05.879Z,95995.50
2019-03-06T19:19:15.298Z,95981.38
2019-03-06T19:22:21.942Z,95983.03
2019-03-06T19:25:28.768Z,95988.48
2019-03-06T19:28:35.626Z,95989.91
2019-03-06T19:31:43.577Z,95989.94
2019-03-06T19:34:50.717Z,95977.04
2019-03-06T19:37:58.259Z,95979.84
2019-03-06T19:41:05.294Z,95964.17
2019-03-06T19:44:11.971Z,95962.68
2019-03-06T19:47:18.853Z,95958.55
2019-03-06T19:50:26.284Z,95944.72
2019-03-06T19:53:33.357Z,95929.10
2019-03-06T19:56:40.319Z,95934.14
2019-03-06T19:59:49.311Z,95945.41
2019-03-06T20:02:56.195Z,95944.33
2019-03-06T20:06:06.026Z,95949.67
2019-03-06T20:09:31.599Z,95953.20
2019-03-06T20:12:38.908Z,95959.87
2019-03-06T20:15:48.444Z,95961.98
2019-03-06T20:18:55.391Z,95960.56
2019-03-06T20:22:10.743Z,95960.99
2019-03-06T20:25:18.785Z,95959.34
2019-03-06T20:28:26.189Z,95960.44
2019-03-06T20:31:37.381Z,95947.70
2019-03-06T20:34:43.912Z,95942.77
2019-03-06T20:37:50.886Z,95945.23
2019-03-06T20:40:57.911Z,95937.87
2019-03-06T20:44:04.901Z,95934.18
2019-03-06T20:47:12.441Z,95924.42
2019-03-06T20:50:21.362Z,95921.84
2019-03-06T20:53:29.568Z,95924.30
2019-03-06T20:56:40.472Z,95927.36
2019-03-06T20:59:48.241Z,95928.19
2019-03-06T21:02:56.436Z,95919.45
2019-03-06T21:06:04.041Z,95919.74
2019-03-06T21:09:11.426Z,95912.79
2019-03-06T21:12:19.820Z,95913.22
2019-03-06T21:15:27.289Z,95900.98
2019-03-06T21:18:34.219Z,95890.41
2019-03-06T21:21:42.594Z,95885.45
2019-03-06T21:24:49.169Z,95890.34
2019-03-06T21:27:56.319Z,95878.73
2019-03-06T21:31:04.246Z,95881.41
2019-03-06T21:34:11.051Z,95874.58
2019-03-06T21:37:18.531Z,95875.38
2019-03-06T21:40:26.391Z,95873.72
2019-03-06T21:43:36.681Z,95870.78
2019-03-06T21:46:44.969Z,95865.88
2019-03-06T21:49:53.273Z,95873.09
2019-03-06T21:53:01.475Z,95859.78
2019-03-06T21:56:08.879Z,95864.11
2019-03-06T21:59:15.644Z,95865.11
2019-03-06T22:02:23.585Z,95847.41
2019-03-06T22:05:31.906Z,95840.63
2019-03-06T22:08:39.481Z,95831.53
2019-03-06T22:11:48.815Z,95841.50
2019-03-06T22:14:55.935Z,95836.42
2019-03-06T22:18:04.570Z,95837.01
2019-03-06T22:21:14.967Z,95838.09
2019-03-06T22:24:21.917Z,95849.55
2019-03-06T22:27:29.305Z,95840.09
2019-03-06T22:30:36.657Z,95841.53
2019-03-06T22:33:43.519Z,95845.02
2019-03-06T22:36:50.223Z,95849.89
2019-03-06T22:39:57.200Z,95853.69
2019-03-06T22:43:04.259Z,95852.70
2019-03-06T22:46:10.719Z,95865.18
2019-03-06T22:49:17.021Z,95859.63
2019-03-06T22:52:23.960Z,95855.54
2019-03-06T22:55:31.460Z,95856.70
2019-03-06T22:58:38.970Z,95855.56
2019-03-06T23:01:47.535Z,95857.56
2019-03-06T23:04:54.397Z,95853.84
2019-03-06T23:08:00.833Z,95856.86
2019-03-06T23:11:07.914Z,95838.70
2019-03-06T23:14:15.719Z,95843.04
2019-03-06T23:17:23.096Z,95840.66
2019-03-06T23:20:29.908Z,95841.58
2019-03-06T23:23:36.605Z,95831.61
2019-03-06T23:26:43.695Z,95829.66
2019-03-06T23:29:50.363Z,95825.50
2019-03-06T23:32:57.620Z,95818.41
2019-03-06T23:36:04.433Z,95827.67
2019-03-06T23:39:14.015Z,95810.68
2019-03-06T23:42:20.737Z,95792.08
2019-03-06T23:45:27.367Z,95784.86
2019-03-06T23:48:33.969Z,95763.77
2019-03-06T23:52:00.770Z,95753.14
2019-03-06T23:55:08.325Z,95751.32
2019-03-06T23:58:15.045Z,95743.38
